Time;durP1;ratioP1;P1;durP2;ratioP2;P2;SDS_P1;SDS_P2;PMS_P1;PMS_P2;Temp;Humidity;BMP_temperature;BMP_pressure;BME280_temperature;BME280_humidity;BME280_pressure;Samples;Min_cycle;Max_cycle;Signal;HPM_P1;HPM_P2
2024/01/09 00:02:05;;;;;;;4.18;2.17;;;;;;;;;;4797895;29;20061;-70
2024/01/09 00:04:33;;;;;;;6.70;2.97;;;;;;;;;;4806384;29;20046;-70
2024/01/09 00:07:00;;;;;;;6.45;2.40;;;;;;;;;;4799316;29;20069;-71
2024/01/09 00:09:26;;;;;;;5.80;2.70;;;;;;;;;;4790266;29;20166;-71
2024/01/09 00:11:53;;;;;;;3.15;1.80;;;;;;;;;;4794973;29;20173;-71
2024/01/09 00:14:20;;;;;;;4.85;2.25;;;;;;;;;;4794797;29;20076;-71
2024/01/09 00:16:46;;;;;;;7.45;2.67;;;;;;;;;;4792359;29;20490;-71
2024/01/09 00:19:12;;;;;;;4.72;2.00;;;;;;;;;;4798867;29;20084;-72
2024/01/09 00:21:39;;;;;;;5.50;2.67;;;;;;;;;;4793867;29;20096;-71
2024/01/09 00:24:06;;;;;;;5.55;2.92;;;;;;;;;;4795258;29;20051;-73
2024/01/09 00:26:39;;;;;;;8.82;2.72;;;;;;;;;;4787810;29;20507;-74
2024/01/09 00:29:05;;;;;;;4.05;2.15;;;;;;;;;;4793797;29;20070;-74
2024/01/09 00:31:32;;;;;;;5.22;2.65;;;;;;;;;;4795596;29;20074;-74
2024/01/09 00:33:58;;;;;;;4.47;2.22;;;;;;;;;;4791459;29;20413;-71
2024/01/09 00:36:25;;;;;;;4.43;2.20;;;;;;;;;;4804525;29;20525;-72
2024/01/09 00:38:51;;;;;;;5.28;2.85;;;;;;;;;;4805235;29;20055;-72
2024/01/09 00:41:18;;;;;;;5.80;2.72;;;;;;;;;;4803140;29;20103;-71
2024/01/09 00:43:44;;;;;;;4.60;2.35;;;;;;;;;;4792093;29;20093;-71
2024/01/09 00:46:11;;;;;;;5.93;2.58;;;;;;;;;;4804403;29;20515;-71
2024/01/09 00:48:37;;;;;;;4.05;1.85;;;;;;;;;;4796622;29;20051;-72
2024/01/09 00:51:04;;;;;;;6.53;2.47;;;;;;;;;;4788718;29;20062;-71
2024/01/09 00:53:31;;;;;;;4.88;2.22;;;;;;;;;;4795255;29;20064;-71
2024/01/09 00:55:57;;;;;;;6.32;2.28;;;;;;;;;;4788781;29;20082;-71
2024/01/09 00:58:24;;;;;;;3.33;2.17;;;;;;;;;;4786758;29;20054;-72
2024/01/09 01:00:50;;;;;;;3.95;2.10;;;;;;;;;;4795144;29;20067;-72
2024/01/09 01:03:16;;;;;;;3.97;2.15;;;;;;;;;;4788440;29;20454;-71
2024/01/09 01:05:43;;;;;;;2.90;1.70;;;;;;;;;;4792707;29;20579;-72
2024/01/09 01:08:09;;;;;;;5.10;2.13;;;;;;;;;;4786780;29;20078;-70
2024/01/09 01:10:36;;;;;;;5.50;2.38;;;;;;;;;;4789626;29;20219;-72
2024/01/09 01:13:02;;;;;;;4.20;2.28;;;;;;;;;;4793967;29;20059;-72
2024/01/09 01:15:29;;;;;;;4.03;2.17;;;;;;;;;;4789814;29;20627;-72
2024/01/09 01:17:55;;;;;;;4.25;2.20;;;;;;;;;;4795859;29;20059;-71
2024/01/09 01:20:22;;;;;;;3.70;1.73;;;;;;;;;;4791345;29;20054;-71
2024/01/09 01:22:48;;;;;;;4.18;2.10;;;;;;;;;;4792487;29;20055;-72
2024/01/09 01:25:15;;;;;;;4.57;2.00;;;;;;;;;;4793412;29;20089;-73
2024/01/09 01:27:41;;;;;;;4.53;2.25;;;;;;;;;;4791266;29;20066;-72
2024/01/09 01:30:08;;;;;;;3.47;1.90;;;;;;;;;;4795855;29;20063;-71
2024/01/09 01:32:34;;;;;;;5.90;1.98;;;;;;;;;;4789973;29;20062;-71
2024/01/09 01:35:01;;;;;;;4.35;2.22;;;;;;;;;;4796788;29;20698;-72
2024/01/09 01:37:27;;;;;;;3.88;2.13;;;;;;;;;;4790374;29;20054;-71
2024/01/09 01:39:54;;;;;;;5.57;2.50;;;;;;;;;;4791339;29;20657;-71
2024/01/09 01:42:20;;;;;;;5.35;1.90;;;;;;;;;;4795423;29;20119;-72
2024/01/09 01:44:46;;;;;;;3.58;1.88;;;;;;;;;;4795428;29;20086;-71
2024/01/09 01:47:14;;;;;;;5.32;2.42;;;;;;;;;;4796102;29;20142;-72
2024/01/09 01:49:40;;;;;;;4.90;2.05;;;;;;;;;;4800745;29;20489;-73
2024/01/09 01:52:07;;;;;;;5.78;1.88;;;;;;;;;;4791325;29;20475;-72
2024/01/09 01:54:35;;;;;;;4.53;2.10;;;;;;;;;;4800010;29;20556;-72
2024/01/09 01:57:02;;;;;;;6.25;2.65;;;;;;;;;;4781686;29;20643;-72
2024/01/09 01:59:30;;;;;;;4.45;2.40;;;;;;;;;;4796307;29;20133;-72
2024/01/09 02:01:56;;;;;;;3.50;2.10;;;;;;;;;;4790613;29;20066;-71
2024/01/09 02:04:23;;;;;;;4.60;2.10;;;;;;;;;;4805945;29;20131;-71
2024/01/09 02:06:50;;;;;;;4.95;2.53;;;;;;;;;;4792470;29;20123;-71
2024/01/09 02:09:16;;;;;;;5.50;2.50;;;;;;;;;;4793148;29;20507;-71
2024/01/09 02:11:43;;;;;;;3.50;1.80;;;;;;;;;;4796435;29;20051;-71
2024/01/09 02:14:09;;;;;;;5.75;2.47;;;;;;;;;;4790086;29;20147;-72
2024/01/09 02:16:36;;;;;;;4.47;2.15;;;;;;;;;;4797066;29;20472;-71
2024/01/09 02:19:02;;;;;;;5.55;2.75;;;;;;;;;;4787130;29;20896;-71
2024/01/09 02:21:29;;;;;;;4.35;2.20;;;;;;;;;;4800494;29;20520;-71
2024/01/09 02:23:55;;;;;;;5.60;2.70;;;;;;;;;;4792073;29;20055;-72
2024/01/09 02:26:26;;;;;;;3.97;2.13;;;;;;;;;;4789771;29;20119;-71
2024/01/09 02:29:15;;;;;;;5.60;2.28;;;;;;;;;;4799716;29;20597;-71
2024/01/09 02:31:42;;;;;;;5.47;2.30;;;;;;;;;;4792523;29;20062;-71
2024/01/09 02:34:11;;;;;;;5.28;2.45;;;;;;;;;;4795010;29;20193;-70
2024/01/09 02:36:37;;;;;;;5.07;2.40;;;;;;;;;;4798952;29;20172;-71
2024/01/09 02:39:04;;;;;;;5.72;2.63;;;;;;;;;;4794232;29;20053;-72
2024/01/09 02:41:34;;;;;;;4.03;2.33;;;;;;;;;;4800229;29;20934;-71
2024/01/09 02:44:00;;;;;;;4.50;2.25;;;;;;;;;;4792003;29;20089;-71
2024/01/09 02:46:26;;;;;;;5.80;2.58;;;;;;;;;;4799515;29;20111;-70
2024/01/09 02:48:53;;;;;;;5.13;2.60;;;;;;;;;;4803088;29;20078;-71
2024/01/09 02:51:20;;;;;;;3.35;1.60;;;;;;;;;;4797735;29;20054;-72
2024/01/09 02:53:47;;;;;;;5.57;2.08;;;;;;;;;;4794456;29;20051;-72
2024/01/09 02:56:14;;;;;;;3.92;2.42;;;;;;;;;;4790326;29;20058;-72
2024/01/09 02:58:40;;;;;;;4.40;2.50;;;;;;;;;;4795217;29;20066;-72
2024/01/09 03:01:07;;;;;;;3.78;2.13;;;;;;;;;;4796444;29;20066;-71
2024/01/09 03:03:34;;;;;;;6.38;2.75;;;;;;;;;;4795121;29;20769;-72
2024/01/09 03:06:00;;;;;;;4.82;2.25;;;;;;;;;;4798876;29;20062;-71
2024/01/09 03:08:27;;;;;;;5.53;2.70;;;;;;;;;;4793335;29;20054;-68
2024/01/09 03:10:53;;;;;;;4.32;2.17;;;;;;;;;;4798954;29;20699;-69
2024/01/09 03:13:20;;;;;;;5.47;2.75;;;;;;;;;;4793216;29;20115;-68
2024/01/09 03:15:46;;;;;;;4.68;2.28;;;;;;;;;;4794736;29;20071;-68
2024/01/09 03:18:13;;;;;;;5.05;2.40;;;;;;;;;;4790197;29;21440;-69
2024/01/09 03:20:40;;;;;;;5.03;2.40;;;;;;;;;;4798444;29;20150;-69
2024/01/09 03:23:06;;;;;;;6.45;2.65;;;;;;;;;;4811740;29;20653;-69
2024/01/09 03:25:33;;;;;;;7.35;2.78;;;;;;;;;;4794693;29;20165;-68
2024/01/09 03:27:59;;;;;;;5.32;2.60;;;;;;;;;;4796852;29;20061;-68
2024/01/09 03:30:29;;;;;;;6.78;2.65;;;;;;;;;;4787338;29;20134;-68
2024/01/09 03:32:56;;;;;;;5.28;2.67;;;;;;;;;;4794386;29;20051;-69
2024/01/09 03:35:23;;;;;;;4.65;2.60;;;;;;;;;;4810804;29;20047;-68
2024/01/09 03:37:49;;;;;;;4.50;2.53;;;;;;;;;;4806264;29;20078;-69
2024/01/09 03:40:16;;;;;;;5.43;3.10;;;;;;;;;;4811147;29;20054;-69
2024/01/09 03:42:42;;;;;;;5.18;2.75;;;;;;;;;;4792975;29;20526;-70
2024/01/09 03:45:09;;;;;;;6.68;3.05;;;;;;;;;;4792998;29;20055;-69
2024/01/09 03:47:35;;;;;;;5.03;2.35;;;;;;;;;;4788794;29;20560;-68
2024/01/09 03:50:03;;;;;;;5.50;2.60;;;;;;;;;;4797437;29;20054;-69
2024/01/09 03:52:29;;;;;;;5.35;2.60;;;;;;;;;;4798409;29;20054;-69
2024/01/09 03:54:55;;;;;;;5.15;2.45;;;;;;;;;;4802929;29;20144;-69
2024/01/09 03:57:22;;;;;;;5.22;2.55;;;;;;;;;;4796308;29;20408;-68
2024/01/09 03:59:48;;;;;;;4.03;2.22;;;;;;;;;;4787433;29;20057;-69
2024/01/09 04:02:15;;;;;;;7.68;3.22;;;;;;;;;;4794304;29;20481;-68
2024/01/09 04:04:42;;;;;;;5.93;3.17;;;;;;;;;;4797479;29;20059;-72
2024/01/09 04:07:08;;;;;;;6.38;2.67;;;;;;;;;;4792004;29;20602;-69
2024/01/09 04:09:35;;;;;;;5.38;2.83;;;;;;;;;;4796135;29;20051;-68
2024/01/09 04:12:02;;;;;;;4.70;2.67;;;;;;;;;;4791118;29;20051;-68
2024/01/09 04:14:28;;;;;;;4.60;2.60;;;;;;;;;;4792388;29;20094;-68
2024/01/09 04:16:56;;;;;;;5.72;2.75;;;;;;;;;;4797321;29;20428;-69
2024/01/09 04:19:22;;;;;;;8.35;3.10;;;;;;;;;;4804976;29;20055;-69
2024/01/09 04:21:49;;;;;;;5.05;2.60;;;;;;;;;;4797187;29;20111;-69
2024/01/09 04:24:15;;;;;;;5.38;2.92;;;;;;;;;;4792803;29;20055;-70
2024/01/09 04:26:42;;;;;;;5.43;2.67;;;;;;;;;;4793729;29;20135;-68
2024/01/09 04:29:08;;;;;;;5.18;3.25;;;;;;;;;;4786700;29;20100;-69
2024/01/09 04:31:35;;;;;;;4.32;2.58;;;;;;;;;;4797400;29;20068;-69
2024/01/09 04:34:01;;;;;;;5.18;2.63;;;;;;;;;;4798510;29;20089;-69
2024/01/09 04:36:28;;;;;;;5.63;2.72;;;;;;;;;;4793439;29;20069;-69
2024/01/09 04:38:54;;;;;;;6.22;3.45;;;;;;;;;;4798328;29;20137;-70
2024/01/09 04:41:21;;;;;;;4.95;2.65;;;;;;;;;;4789462;29;20088;-69
2024/01/09 04:43:47;;;;;;;6.10;2.70;;;;;;;;;;4794540;29;20137;-69
2024/01/09 04:46:14;;;;;;;5.55;2.72;;;;;;;;;;4798700;29;20104;-69
2024/01/09 04:48:40;;;;;;;5.03;2.50;;;;;;;;;;4792735;29;20065;-69
2024/01/09 04:51:07;;;;;;;5.22;3.10;;;;;;;;;;4798363;29;20063;-70
2024/01/09 04:53:34;;;;;;;6.07;2.90;;;;;;;;;;4792292;29;20143;-70
2024/01/09 04:56:01;;;;;;;5.90;2.90;;;;;;;;;;4794903;29;20153;-69
2024/01/09 04:58:28;;;;;;;6.10;2.92;;;;;;;;;;4784882;29;20390;-70
2024/01/09 05:00:55;;;;;;;6.20;3.55;;;;;;;;;;4805888;29;20519;-70
2024/01/09 05:03:22;;;;;;;7.47;3.33;;;;;;;;;;4798127;29;20615;-69
2024/01/09 05:05:48;;;;;;;5.32;2.80;;;;;;;;;;4789607;29;20711;-69
2024/01/09 05:08:15;;;;;;;9.35;3.70;;;;;;;;;;4798245;29;20057;-70
2024/01/09 05:10:41;;;;;;;4.75;2.95;;;;;;;;;;4787506;29;20062;-69
2024/01/09 05:13:09;;;;;;;4.88;2.70;;;;;;;;;;4795097;29;20181;-70
2024/01/09 05:15:35;;;;;;;6.00;2.92;;;;;;;;;;4798061;29;20059;-69
2024/01/09 05:18:02;;;;;;;6.57;3.60;;;;;;;;;;4793575;29;20504;-69
2024/01/09 05:20:28;;;;;;;8.05;3.60;;;;;;;;;;4798251;29;20157;-69
2024/01/09 05:22:55;;;;;;;6.80;3.35;;;;;;;;;;4790359;29;20050;-69
2024/01/09 05:25:21;;;;;;;8.27;3.58;;;;;;;;;;4792655;29;20729;-69
2024/01/09 05:27:48;;;;;;;6.05;2.75;;;;;;;;;;4791963;29;20066;-69
2024/01/09 05:30:14;;;;;;;4.93;2.95;;;;;;;;;;4795949;29;20059;-69
2024/01/09 05:32:41;;;;;;;4.75;2.85;;;;;;;;;;4797321;29;20055;-69
2024/01/09 05:35:09;;;;;;;5.75;3.10;;;;;;;;;;4802321;29;20109;-69
2024/01/09 05:37:35;;;;;;;6.65;3.30;;;;;;;;;;4796429;29;20054;-69
2024/01/09 05:40:03;;;;;;;5.25;2.92;;;;;;;;;;4787077;29;20737;-70
2024/01/09 05:42:30;;;;;;;6.05;3.20;;;;;;;;;;4797893;29;20043;-69
2024/01/09 05:44:56;;;;;;;6.95;3.25;;;;;;;;;;4795950;29;20502;-69
2024/01/09 05:47:23;;;;;;;9.48;4.05;;;;;;;;;;4806889;29;20054;-70
2024/01/09 05:49:49;;;;;;;7.60;3.53;;;;;;;;;;4792270;29;20063;-69
2024/01/09 05:52:15;;;;;;;9.02;3.70;;;;;;;;;;4788762;29;20079;-70
2024/01/09 05:54:45;;;;;;;6.35;3.30;;;;;;;;;;4794592;29;20054;-70
2024/01/09 05:57:12;;;;;;;6.72;3.38;;;;;;;;;;4806954;29;20055;-72
2024/01/09 05:59:38;;;;;;;6.97;3.80;;;;;;;;;;4790141;29;20062;-71
2024/01/09 06:02:05;;;;;;;7.10;3.20;;;;;;;;;;4797461;29;20108;-70
2024/01/09 06:04:31;;;;;;;6.50;3.03;;;;;;;;;;4788939;29;20077;-71
2024/01/09 06:06:58;;;;;;;7.78;3.30;;;;;;;;;;4795717;29;20054;-71
2024/01/09 06:09:25;;;;;;;7.85;3.20;;;;;;;;;;4792674;29;20067;-70
2024/01/09 06:11:51;;;;;;;7.50;3.28;;;;;;;;;;4800132;29;20067;-70
2024/01/09 06:14:18;;;;;;;7.38;3.63;;;;;;;;;;4814672;29;20062;-71
2024/01/09 06:16:44;;;;;;;6.30;3.33;;;;;;;;;;4795574;29;20138;-70
2024/01/09 06:19:11;;;;;;;7.05;3.28;;;;;;;;;;4801026;29;20473;-70
2024/01/09 06:21:38;;;;;;;6.85;3.53;;;;;;;;;;4792274;29;20555;-68
2024/01/09 06:24:04;;;;;;;6.75;3.60;;;;;;;;;;4794056;29;20840;-69
2024/01/09 06:26:31;;;;;;;8.18;3.85;;;;;;;;;;4806534;29;20102;-71
2024/01/09 06:28:57;;;;;;;7.07;3.67;;;;;;;;;;4794479;29;20059;-70
2024/01/09 06:31:23;;;;;;;7.50;3.72;;;;;;;;;;4801051;29;20071;-70
2024/01/09 06:33:50;;;;;;;6.80;3.17;;;;;;;;;;4795082;29;20073;-70
2024/01/09 06:36:16;;;;;;;6.75;3.78;;;;;;;;;;4810624;29;20047;-71
2024/01/09 06:38:43;;;;;;;7.30;3.47;;;;;;;;;;4798656;29;20051;-70
2024/01/09 06:41:09;;;;;;;6.68;3.20;;;;;;;;;;4795607;29;20050;-70
2024/01/09 06:43:36;;;;;;;6.10;3.15;;;;;;;;;;4800707;29;20043;-70
2024/01/09 06:46:02;;;;;;;6.57;3.60;;;;;;;;;;4795318;29;20575;-70
2024/01/09 06:48:29;;;;;;;8.13;4.22;;;;;;;;;;4813228;29;20575;-70
2024/01/09 06:50:55;;;;;;;8.60;4.15;;;;;;;;;;4795980;29;20150;-70
2024/01/09 06:53:22;;;;;;;6.57;3.25;;;;;;;;;;4796720;29;20062;-69
2024/01/09 06:55:48;;;;;;;7.40;3.90;;;;;;;;;;4800536;29;20059;-70
2024/01/09 06:58:16;;;;;;;8.07;3.72;;;;;;;;;;4794647;29;20093;-71
2024/01/09 07:00:43;;;;;;;7.78;3.90;;;;;;;;;;4812458;29;20499;-70
2024/01/09 07:03:10;;;;;;;7.43;3.80;;;;;;;;;;4794228;29;20463;-69
2024/01/09 07:05:37;;;;;;;8.80;4.05;;;;;;;;;;4793391;29;20605;-70
2024/01/09 07:08:04;;;;;;;8.60;4.85;;;;;;;;;;4800085;29;20066;-70
2024/01/09 07:10:30;;;;;;;10.55;3.53;;;;;;;;;;4793180;29;20124;-70
2024/01/09 07:12:56;;;;;;;9.20;4.13;;;;;;;;;;4799185;29;20083;-70
2024/01/09 07:15:23;;;;;;;7.22;3.72;;;;;;;;;;4793081;29;20142;-70
2024/01/09 07:17:49;;;;;;;6.93;3.75;;;;;;;;;;4794587;29;20047;-70
2024/01/09 07:20:16;;;;;;;9.65;3.90;;;;;;;;;;4793879;29;20127;-70
2024/01/09 07:22:42;;;;;;;6.78;3.55;;;;;;;;;;4797524;29;20055;-70
2024/01/09 07:25:14;;;;;;;7.20;3.60;;;;;;;;;;4798862;29;20055;-71
2024/01/09 07:27:40;;;;;;;8.30;4.03;;;;;;;;;;4807482;29;20733;-69
2024/01/09 07:30:07;;;;;;;5.82;3.30;;;;;;;;;;4799293;29;20086;-69
2024/01/09 07:32:34;;;;;;;7.85;3.83;;;;;;;;;;4786271;29;20042;-75
2024/01/09 07:35:01;;;;;;;8.52;3.45;;;;;;;;;;4806771;29;20059;-72
2024/01/09 07:37:27;;;;;;;7.28;3.60;;;;;;;;;;4799861;29;20136;-71
2024/01/09 07:39:54;;;;;;;7.57;3.92;;;;;;;;;;4793986;29;20066;-72
2024/01/09 07:42:20;;;;;;;10.27;4.55;;;;;;;;;;4799946;29;20043;-69
2024/01/09 07:44:47;;;;;;;6.35;3.50;;;;;;;;;;4792969;29;20058;-71
2024/01/09 07:47:14;;;;;;;7.18;3.70;;;;;;;;;;4794536;29;20159;-72
2024/01/09 07:49:40;;;;;;;7.40;3.67;;;;;;;;;;4794249;29;20489;-71
2024/01/09 07:52:08;;;;;;;7.78;4.13;;;;;;;;;;4794649;29;20146;-70
2024/01/09 07:54:34;;;;;;;8.30;3.78;;;;;;;;;;4799573;29;20074;-71
2024/01/09 07:57:01;;;;;;;8.10;3.83;;;;;;;;;;4793615;29;20047;-71
2024/01/09 07:59:27;;;;;;;6.88;3.72;;;;;;;;;;4796809;29;20051;-71
2024/01/09 08:01:55;;;;;;;6.97;3.88;;;;;;;;;;4790637;29;20051;-72
2024/01/09 08:04:24;;;;;;;6.38;3.67;;;;;;;;;;4809358;29;20051;-71
2024/01/09 08:06:51;;;;;;;7.88;3.70;;;;;;;;;;4798677;29;20059;-71
2024/01/09 08:09:20;;;;;;;7.28;3.80;;;;;;;;;;4793000;29;20047;-71
2024/01/09 08:11:46;;;;;;;8.43;3.90;;;;;;;;;;4797848;29;20898;-71
2024/01/09 08:14:14;;;;;;;7.35;3.65;;;;;;;;;;4790517;29;20055;-70
2024/01/09 08:16:40;;;;;;;9.20;4.10;;;;;;;;;;4795474;29;20054;-70
2024/01/09 08:19:07;;;;;;;5.90;3.63;;;;;;;;;;4798920;29;20059;-70
2024/01/09 08:21:37;;;;;;;8.07;3.88;;;;;;;;;;4787434;29;20080;-73
2024/01/09 08:24:08;;;;;;;7.82;3.78;;;;;;;;;;4795885;29;20047;-68
2024/01/09 08:26:34;;;;;;;7.60;3.60;;;;;;;;;;4793333;29;20055;-68
2024/01/09 08:29:02;;;;;;;8.07;4.20;;;;;;;;;;4798706;29;20066;-69
2024/01/09 08:31:29;;;;;;;8.40;3.70;;;;;;;;;;4791533;29;20062;-68
2024/01/09 08:33:55;;;;;;;7.07;3.92;;;;;;;;;;4795820;29;20290;-68
2024/01/09 08:36:22;;;;;;;7.85;3.92;;;;;;;;;;4797479;29;20748;-68
2024/01/09 08:38:48;;;;;;;6.28;3.38;;;;;;;;;;4790535;29;20051;-69
2024/01/09 08:41:17;;;;;;;7.55;4.00;;;;;;;;;;4799258;29;20084;-71
2024/01/09 08:43:43;;;;;;;;;;;;;;;;;;4790296;29;20059;-69
2024/01/09 08:46:10;;;;;;;6.90;3.45;;;;;;;;;;4793641;29;20500;-71
2024/01/09 08:48:36;;;;;;;7.47;3.90;;;;;;;;;;4800007;29;20451;-71
2024/01/09 08:51:03;;;;;;;7.85;4.53;;;;;;;;;;4803952;29;20512;-70
2024/01/09 08:53:38;;;;;;;7.68;3.58;;;;;;;;;;4798014;29;20119;-70
2024/01/09 08:56:04;;;;;;;7.43;3.72;;;;;;;;;;4793317;29;20498;-70
2024/01/09 08:58:31;;;;;;;6.55;3.90;;;;;;;;;;4792386;29;20055;-70
2024/01/09 09:00:57;;;;;;;7.10;3.88;;;;;;;;;;4794573;29;20570;-71
2024/01/09 09:03:24;;;;;;;9.30;4.22;;;;;;;;;;4799694;29;20162;-69
2024/01/09 09:05:50;;;;;;;8.45;3.53;;;;;;;;;;4797800;29;20050;-70
2024/01/09 09:08:18;;;;;;;6.28;3.50;;;;;;;;;;4795195;29;20560;-70
2024/01/09 09:10:44;;;;;;;5.30;3.25;;;;;;;;;;4794005;29;20551;-70
2024/01/09 09:13:10;;;;;;;8.07;3.92;;;;;;;;;;4788838;29;20490;-70
2024/01/09 09:15:37;;;;;;;5.97;3.20;;;;;;;;;;4797556;29;20055;-70
2024/01/09 09:18:04;;;;;;;6.97;3.58;;;;;;;;;;4797980;29;20054;-70
2024/01/09 09:20:31;;;;;;;6.55;3.60;;;;;;;;;;4792947;29;20047;-70
2024/01/09 09:22:58;;;;;;;6.07;3.50;;;;;;;;;;4796150;29;20054;-70
2024/01/09 09:25:24;;;;;;;7.57;4.05;;;;;;;;;;4786536;29;20062;-70
2024/01/09 09:27:51;;;;;;;10.00;4.45;;;;;;;;;;4794747;29;20059;-70
2024/01/09 09:30:18;;;;;;;7.32;3.80;;;;;;;;;;4797760;29;20061;-71
2024/01/09 09:32:44;;;;;;;7.72;3.90;;;;;;;;;;4792471;29;20065;-70
2024/01/09 09:35:11;;;;;;;7.32;3.65;;;;;;;;;;4798490;29;20051;-71
2024/01/09 09:37:37;;;;;;;8.27;3.75;;;;;;;;;;4779758;29;20051;-70
2024/01/09 09:40:04;;;;;;;7.97;3.60;;;;;;;;;;4795555;29;20051;-70
2024/01/09 09:42:31;;;;;;;7.30;3.60;;;;;;;;;;4785186;29;20055;-70
2024/01/09 09:45:00;;;;;;;7.60;3.80;;;;;;;;;;4802052;29;20112;-70
2024/01/09 09:47:27;;;;;;;7.40;3.42;;;;;;;;;;4802022;29;20054;-70
2024/01/09 09:49:55;;;;;;;9.00;4.03;;;;;;;;;;4809470;29;20059;-70
2024/01/09 09:52:24;;;;;;;8.05;3.70;;;;;;;;;;4799205;29;20161;-71
2024/01/09 09:54:50;;;;;;;;;;;;;;;;;;4791755;29;20054;-71
2024/01/09 09:57:17;;;;;;;7.75;3.30;;;;;;;;;;4800080;29;19925;-70
2024/01/09 09:59:43;;;;;;;6.25;3.10;;;;;;;;;;4799878;29;20058;-70
2024/01/09 10:02:17;;;;;;;7.43;3.65;;;;;;;;;;4796472;29;20046;-70
2024/01/09 10:04:46;;;;;;;5.90;2.92;;;;;;;;;;4798274;29;20115;-70
2024/01/09 10:07:14;;;;;;;7.13;3.05;;;;;;;;;;4792280;29;20059;-71
2024/01/09 10:09:43;;;;;;;7.50;3.85;;;;;;;;;;4797856;29;20369;-71
2024/01/09 10:12:10;;;;;;;6.43;3.15;;;;;;;;;;4796049;29;20817;-71
2024/01/09 10:14:36;;;;;;;7.18;3.72;;;;;;;;;;4800690;29;20059;-70
2024/01/09 10:17:05;;;;;;;7.15;3.55;;;;;;;;;;4800692;29;20062;-70
2024/01/09 10:19:31;;;;;;;8.60;3.83;;;;;;;;;;4795921;29;20055;-69
2024/01/09 10:21:58;;;;;;;7.85;3.35;;;;;;;;;;4795788;29;20054;-70
2024/01/09 10:24:24;;;;;;;8.50;3.30;;;;;;;;;;4792166;29;20104;-70
2024/01/09 10:26:54;;;;;;;7.00;3.63;;;;;;;;;;4802048;29;20063;-71
2024/01/09 10:29:21;;;;;;;7.50;4.00;;;;;;;;;;4798360;29;20065;-69
2024/01/09 10:31:48;;;;;;;7.22;3.33;;;;;;;;;;4793404;29;20051;-71
2024/01/09 10:34:14;;;;;;;8.32;3.58;;;;;;;;;;4794597;29;20512;-70
2024/01/09 10:36:41;;;;;;;6.35;2.88;;;;;;;;;;4791270;29;20652;-71
2024/01/09 10:39:09;;;;;;;7.65;3.15;;;;;;;;;;4810130;29;20059;-71
2024/01/09 10:41:35;;;;;;;7.82;3.55;;;;;;;;;;4795917;29;20528;-69
2024/01/09 10:44:02;;;;;;;6.85;3.50;;;;;;;;;;4800048;29;20876;-70
2024/01/09 10:46:33;;;;;;;7.93;3.70;;;;;;;;;;4801408;29;20654;-70
2024/01/09 10:49:03;;;;;;;6.63;3.42;;;;;;;;;;4786972;29;20050;-70
2024/01/09 10:51:31;;;;;;;6.55;3.28;;;;;;;;;;4794967;29;21056;-71
2024/01/09 10:53:59;;;;;;;7.03;3.33;;;;;;;;;;4793710;29;20047;-70
2024/01/09 10:56:26;;;;;;;7.60;3.63;;;;;;;;;;4803122;29;20111;-71
2024/01/09 10:58:52;;;;;;;6.22;3.30;;;;;;;;;;4799737;29;20120;-70
2024/01/09 11:01:19;;;;;;;6.63;2.92;;;;;;;;;;4807803;29;20055;-69
2024/01/09 11:03:47;;;;;;;7.47;3.38;;;;;;;;;;4796739;29;20054;-70
2024/01/09 11:06:18;;;;;;;6.30;3.72;;;;;;;;;;4785916;29;20053;-70
2024/01/09 11:08:48;;;;;;;7.65;3.63;;;;;;;;;;4796306;29;20059;-70
2024/01/09 11:11:16;;;;;;;6.57;3.40;;;;;;;;;;4794854;29;20061;-71
2024/01/09 11:13:46;;;;;;;6.57;2.97;;;;;;;;;;4798955;29;20150;-70
2024/01/09 11:16:15;;;;;;;6.75;3.38;;;;;;;;;;4799693;29;20055;-70
2024/01/09 11:18:42;;;;;;;5.22;3.00;;;;;;;;;;4791184;29;20069;-70
2024/01/09 11:21:11;;;;;;;6.30;2.90;;;;;;;;;;4797351;29;20074;-69
2024/01/09 11:23:43;;;;;;;7.20;3.22;;;;;;;;;;4794201;29;20093;-70
2024/01/09 11:26:13;;;;;;;6.03;3.00;;;;;;;;;;4801489;29;20104;-70
2024/01/09 11:28:42;;;;;;;5.90;2.67;;;;;;;;;;4799676;29;20055;-70
2024/01/09 11:31:09;;;;;;;;;;;;;;;;;;4786107;29;20054;-70
2024/01/09 11:33:41;;;;;;;5.60;2.83;;;;;;;;;;4795079;29;20016;-73
2024/01/09 11:36:09;;;;;;;6.47;2.75;;;;;;;;;;4791500;29;20063;-69
2024/01/09 11:38:36;;;;;;;6.88;3.35;;;;;;;;;;4799367;29;20112;-71
2024/01/09 11:41:07;;;;;;;7.35;3.42;;;;;;;;;;4794662;29;20062;-75
2024/01/09 11:43:53;;;;;;;6.75;3.22;;;;;;;;;;4798854;29;20154;-70
2024/01/09 11:46:19;;;;;;;5.63;2.83;;;;;;;;;;4795046;29;20054;-69
2024/01/09 11:48:45;;;;;;;5.35;3.08;;;;;;;;;;4798965;29;20051;-69
2024/01/09 11:51:13;;;;;;;6.22;2.92;;;;;;;;;;4805105;29;20142;-70
2024/01/09 11:53:39;;;;;;;6.40;3.00;;;;;;;;;;4793853;29;20055;-69
2024/01/09 11:56:12;;;;;;;6.25;2.83;;;;;;;;;;4799455;29;20058;-70
2024/01/09 11:58:38;;;;;;;6.18;2.83;;;;;;;;;;4794870;29;20054;-70
2024/01/09 12:01:05;;;;;;;5.85;3.08;;;;;;;;;;4794638;29;20058;-70
2024/01/09 12:03:33;;;;;;;6.03;3.10;;;;;;;;;;4798970;29;20298;-70
2024/01/09 12:06:00;;;;;;;5.03;2.47;;;;;;;;;;4793614;29;20062;-71
2024/01/09 12:08:27;;;;;;;6.00;3.03;;;;;;;;;;4800204;29;20054;-72
2024/01/09 12:10:54;;;;;;;5.47;2.75;;;;;;;;;;4799263;29;20417;-71
2024/01/09 12:13:20;;;;;;;5.40;2.50;;;;;;;;;;4798400;29;20061;-70
2024/01/09 12:15:47;;;;;;;5.75;3.17;;;;;;;;;;4799997;29;20662;-71
2024/01/09 12:18:13;;;;;;;6.75;3.20;;;;;;;;;;4796240;29;20095;-73
2024/01/09 12:20:41;;;;;;;5.53;2.90;;;;;;;;;;4798889;29;20056;-70
2024/01/09 12:23:07;;;;;;;7.15;2.72;;;;;;;;;;4794690;29;20054;-70
2024/01/09 12:25:34;;;;;;;6.75;3.03;;;;;;;;;;4799282;29;20132;-70
2024/01/09 12:28:02;;;;;;;5.35;2.25;;;;;;;;;;4795253;29;20058;-70
2024/01/09 12:30:31;;;;;;;6.43;2.90;;;;;;;;;;4804217;29;20059;-70
2024/01/09 12:32:58;;;;;;;5.18;2.70;;;;;;;;;;4799530;29;20141;-71
2024/01/09 12:35:25;;;;;;;4.57;2.65;;;;;;;;;;4808852;29;20062;-71
2024/01/09 12:37:51;;;;;;;7.03;3.22;;;;;;;;;;4800994;29;20070;-70
2024/01/09 12:40:18;;;;;;;6.63;3.40;;;;;;;;;;4801644;29;20110;-71
2024/01/09 12:42:45;;;;;;;5.15;2.75;;;;;;;;;;4806306;29;20074;-71
2024/01/09 12:45:12;;;;;;;4.40;2.17;;;;;;;;;;4797989;29;20086;-71
2024/01/09 12:47:38;;;;;;;6.38;2.85;;;;;;;;;;4792296;29;20081;-70
2024/01/09 12:50:05;;;;;;;6.35;2.78;;;;;;;;;;4797546;29;20066;-71
2024/01/09 12:52:32;;;;;;;5.18;2.83;;;;;;;;;;4792764;29;20139;-72
2024/01/09 12:55:00;;;;;;;5.70;2.80;;;;;;;;;;4794792;29;20104;-70
2024/01/09 12:57:30;;;;;;;8.20;3.20;;;;;;;;;;4794933;29;20058;-71
2024/01/09 12:59:57;;;;;;;6.57;2.63;;;;;;;;;;4805722;29;20428;-71
2024/01/09 13:02:23;;;;;;;8.82;2.75;;;;;;;;;;4812567;29;20138;-70
2024/01/09 13:04:50;;;;;;;7.40;2.53;;;;;;;;;;4792423;29;20051;-71
2024/01/09 13:07:18;;;;;;;5.70;2.38;;;;;;;;;;4798829;29;20074;-70
2024/01/09 13:09:44;;;;;;;7.05;2.60;;;;;;;;;;4789056;29;20066;-71
2024/01/09 13:12:11;;;;;;;6.55;2.65;;;;;;;;;;4795716;29;20059;-71
2024/01/09 13:14:40;;;;;;;7.30;2.50;;;;;;;;;;4797909;29;20059;-71
2024/01/09 13:17:08;;;;;;;3.78;1.90;;;;;;;;;;4792766;29;20074;-71
2024/01/09 13:19:34;;;;;;;6.63;2.97;;;;;;;;;;4797194;29;20598;-70
2024/01/09 13:22:01;;;;;;;6.72;2.88;;;;;;;;;;4790548;29;20054;-70
2024/01/09 13:24:30;;;;;;;5.65;2.30;;;;;;;;;;4783197;29;20074;-71
2024/01/09 13:26:57;;;;;;;5.50;2.67;;;;;;;;;;4794243;29;20420;-70
2024/01/09 13:29:25;;;;;;;5.30;2.38;;;;;;;;;;4793340;29;20430;-70
2024/01/09 13:31:54;;;;;;;5.53;2.50;;;;;;;;;;4807795;29;20504;-70
2024/01/09 13:34:21;;;;;;;5.68;2.70;;;;;;;;;;4793351;29;20112;-70
2024/01/09 13:36:48;;;;;;;5.00;2.55;;;;;;;;;;4795935;29;20492;-71
2024/01/09 13:39:16;;;;;;;4.90;2.55;;;;;;;;;;4801790;29;20145;-70
2024/01/09 13:41:44;;;;;;;7.13;2.60;;;;;;;;;;4792500;29;20069;-71
2024/01/09 13:44:11;;;;;;;6.27;2.63;;;;;;;;;;4791898;29;20081;-69
2024/01/09 13:46:37;;;;;;;5.82;2.95;;;;;;;;;;4792898;29;20131;-70
2024/01/09 13:49:04;;;;;;;6.45;3.40;;;;;;;;;;4797490;29;20055;-70
2024/01/09 13:51:30;;;;;;;7.22;2.97;;;;;;;;;;4802781;29;20063;-70
2024/01/09 13:54:00;;;;;;;5.25;2.42;;;;;;;;;;4794312;29;20142;-69
2024/01/09 13:56:27;;;;;;;5.45;2.72;;;;;;;;;;4811966;29;20096;-71
2024/01/09 13:58:54;;;;;;;7.13;2.65;;;;;;;;;;4791072;29;20602;-71
2024/01/09 14:01:20;;;;;;;5.78;2.25;;;;;;;;;;4796965;29;20039;-70
2024/01/09 14:04:03;;;;;;;5.28;2.55;;;;;;;;;;4792242;29;20108;-70
2024/01/09 14:06:30;;;;;;;4.93;2.40;;;;;;;;;;4792459;29;20080;-70
2024/01/09 14:08:59;;;;;;;4.00;2.13;;;;;;;;;;4794116;29;20055;-70
2024/01/09 14:11:26;;;;;;;9.15;2.67;;;;;;;;;;4793683;29;20051;-70
2024/01/09 14:13:53;;;;;;;5.25;2.35;;;;;;;;;;4797488;29;20070;-71
2024/01/09 14:16:20;;;;;;;4.47;2.45;;;;;;;;;;4792150;29;20055;-70
2024/01/09 14:18:47;;;;;;;5.18;2.50;;;;;;;;;;4797702;29;20061;-70
2024/01/09 14:21:14;;;;;;;5.15;2.67;;;;;;;;;;4788639;29;20051;-70
2024/01/09 14:23:40;;;;;;;5.13;2.75;;;;;;;;;;4793722;29;20146;-70
2024/01/09 14:26:07;;;;;;;6.20;2.40;;;;;;;;;;4800526;29;20165;-70
2024/01/09 14:28:34;;;;;;;5.38;2.50;;;;;;;;;;4795333;29;20166;-69
2024/01/09 14:31:00;;;;;;;5.63;2.25;;;;;;;;;;4801601;29;20054;-70
2024/01/09 14:33:27;;;;;;;4.82;2.22;;;;;;;;;;4796283;29;20058;-69
2024/01/09 14:35:54;;;;;;;4.05;2.15;;;;;;;;;;4794059;29;20051;-71
2024/01/09 14:38:20;;;;;;;6.05;2.72;;;;;;;;;;4800628;29;20046;-69
2024/01/09 14:40:47;;;;;;;4.70;2.33;;;;;;;;;;4795328;29;20069;-70
2024/01/09 14:43:13;;;;;;;6.07;2.25;;;;;;;;;;4800800;29;20058;-69